Canton, Georgia
Current Conditions -  °F | °C
As of 5:35 PM on Thursday 20 Nov 2014 (Local Time) from KCNI Reporting Station
Clear Clear  
Wind Chill: 50°   Ceiling: Unl
Heat Index: 50°   Visibility: 10mi
Dew Point: 23°   Wind: 0mph
Humidity: 35%   Direction: NA
Pressure: 30.17"   Gusts: NA
Location:  34.25°N, 84.49°W
Report Text: KCNI 202235Z AUTO 00000KT 10SM CLR 10/M05 A3017 RMK AO2
Loading
Personal Weather Stations






























Interactive Weather Map New forecast layout! Learn more

10-Day Weather Forecast

Advertisements
Track Severe Weather on mobile